KDRA/DRA METAR and TAF weather

Enter ICAO airport designator
Station Type Date Time Source
KDRA METAR 2022/12/04 10:53 UTC NOAA

KDRA 041053Z AUTO VRB05KT 10SM CLR 06/00 A3008 RMK AO2 SLP167 T00560000


Station Type Date Time Source
KDRA Decoded METAR 2022/12/04 10:53 UTC NOAA

DESERT ROCK AIRPORT, NV, United States (KDRA) 36-38N 116-02W 1006M
Dec 04, 2022 - 05:53 AM EST / 2022.12.04 1053 UTC
Wind: Variable at 6 MPH (5 KT):0
Visibility: 10 mile(s):0
Sky conditions: clear
Temperature: 42.1 F (5.6 C)
Dew Point: 32.0 F (0.0 C)
Relative Humidity: 67%
Pressure (altimeter): 30.08 in. Hg (1018 hPa)
ob: KDRA 041053Z AUTO VRB05KT 10SM CLR 06/00 A3008 RMK AO2 SLP167 T00560000
cycle: 11

Station Type Date Time Source
KDRA TAF 2011/12/07 06:36 UTC NOAA

TAF KDRA 070532Z 0706/0806 VRB04KT P6SM SKC

Example: see airport list